Time;durP1;ratioP1;P1;durP2;ratioP2;P2;SDS_P1;SDS_P2;PMS_P1;PMS_P2;Temp;Humidity;BMP_temperature;BMP_pressure;BME280_temperature;BME280_humidity;BME280_pressure;Samples;Min_cycle;Max_cycle;Signal;HPM_P1;HPM_P2
2021/08/12 07:30:40;;;;;;;82.97;53.00;;;;;;;22.45;77.15;98992.34;5259309;23;20437;-89
2021/08/12 07:33:07;;;;;;;86.63;50.78;;;;;;;22.51;77.60;98999.09;4995035;28;20038;-88
2021/08/12 07:35:34;;;;;;;90.63;54.65;;;;;;;22.59;77.16;98995.09;4979546;28;20076;-91
2021/08/12 07:38:00;;;;;;;;;;;;;;;22.71;77.47;99010.59;4996049;28;20046;-89
2021/08/12 07:40:27;;;;;;;;;;;;;;;22.75;76.91;99023.31;4979908;28;20497;-91
2021/08/12 07:42:54;;;;;;;86.78;52.80;;;;;;;22.58;77.94;98990.72;4980403;28;20347;-90
2021/08/12 07:45:21;;;;;;;87.40;53.90;;;;;;;22.61;77.53;99012.19;5013390;28;20057;-89
2021/08/12 07:47:47;;;;;;;87.70;53.70;;;;;;;22.66;77.32;98994.28;4985135;28;20042;-89
2021/08/12 07:50:14;;;;;;;90.32;53.13;;;;;;;22.83;76.43;99001.00;4975894;28;20050;-90
2021/08/12 07:52:41;;;;;;;99.13;56.78;;;;;;;22.50;77.27;98961.28;4993139;28;20045;-90
2021/08/12 07:55:08;;;;;;;77.57;51.28;;;;;;;22.65;74.63;98995.47;4992140;28;20168;-90
2021/08/12 07:57:34;;;;;;;229.93;66.10;;;;;;;22.55;76.00;98991.53;4954982;28;20045;-88
2021/08/12 08:00:02;;;;;;;149.32;60.83;;;;;;;22.65;76.63;99004.66;4993721;28;20049;-89
2021/08/12 08:02:45;;;;;;;150.40;64.07;;;;;;;22.81;78.39;99034.84;4996045;28;20040;-89
2021/08/12 08:05:20;;;;;;;131.10;62.33;;;;;;;22.78;78.74;99012.56;4993210;28;20137;-89
2021/08/12 08:07:50;;;;;;;101.82;59.30;;;;;;;22.79;76.85;99026.09;4993220;28;20056;-89
2021/08/12 08:10:20;;;;;;;107.50;59.72;;;;;;;23.06;77.96;99057.09;4992726;28;20041;-87
2021/08/12 08:12:48;;;;;;;104.47;58.00;;;;;;;23.03;76.91;99041.19;4995475;28;20430;-87
2021/08/12 08:15:16;;;;;;;107.47;56.10;;;;;;;23.09;76.29;99027.63;4963083;28;20496;-87
2021/08/12 08:17:43;;;;;;;87.25;51.78;;;;;;;23.28;73.81;99027.16;5008995;28;20075;-88
2021/08/12 08:20:11;;;;;;;110.72;54.70;;;;;;;23.24;74.00;98992.09;4994797;28;20050;-87
2021/08/12 08:22:38;;;;;;;116.88;54.65;;;;;;;23.52;73.02;99022.63;4994373;28;20564;-88
2021/08/12 08:25:06;;;;;;;125.20;58.50;;;;;;;23.41;74.98;98992.00;4976080;28;20392;-87
2021/08/12 08:27:33;;;;;;;148.43;62.25;;;;;;;23.72;75.08;99036.09;4993797;28;20384;-88
2021/08/12 08:30:00;;;;;;;145.85;60.83;;;;;;;23.65;74.42;99009.00;5009987;28;20053;-88
2021/08/12 08:32:27;;;;;;;116.82;61.35;;;;;;;23.60;73.90;99013.00;4998990;28;20658;-88
2021/08/12 08:34:54;;;;;;;124.85;61.42;;;;;;;23.72;73.58;99027.72;5008784;28;20042;-88
2021/08/12 08:37:23;;;;;;;95.80;57.90;;;;;;;23.76;74.06;99048.03;4986698;28;20412;-90
2021/08/12 08:39:50;;;;;;;94.40;56.47;;;;;;;23.67;73.64;99063.22;4982116;28;20042;-88
2021/08/12 08:42:17;;;;;;;93.93;57.65;;;;;;;23.59;74.36;99064.44;5012801;28;20048;-91
2021/08/12 08:44:46;;;;;;;88.80;57.88;;;;;;;23.33;74.78;99051.03;4970701;28;20038;-93
2021/08/12 08:47:14;;;;;;;97.15;56.72;;;;;;;23.36;74.92;99073.31;4998070;28;20033;-94
2021/08/12 08:49:47;;;;;;;102.20;62.75;;;;;;;23.27;75.45;99064.59;4956719;28;20096;-90
2021/08/12 08:52:14;;;;;;;105.43;66.38;;;;;;;23.33;75.84;99060.19;4992393;28;20041;-91
2021/08/12 08:54:43;;;;;;;112.97;66.85;;;;;;;23.30;76.19;99029.53;4996373;28;20124;-92
2021/08/12 08:57:10;;;;;;;115.07;70.88;;;;;;;23.45;75.47;99034.63;5006147;28;20041;-88
2021/08/12 08:59:36;;;;;;;141.52;72.55;;;;;;;23.56;75.23;99048.50;5005130;28;20046;-91
2021/08/12 09:02:05;;;;;;;119.80;70.15;;;;;;;23.30;73.82;99021.16;5008913;28;20046;-88
2021/08/12 09:04:37;;;;;;;136.80;72.22;;;;;;;23.30;73.98;99033.09;5005230;28;20038;-94
2021/08/12 09:07:07;;;;;;;152.48;73.93;;;;;;;23.18;74.96;99030.78;4980387;28;20511;-95
2021/08/12 09:09:37;;;;;;;153.90;75.72;;;;;;;22.89;75.41;98991.03;4951318;28;20534;-93
2021/08/12 09:12:05;;;;;;;192.75;80.55;;;;;;;22.83;75.68;99010.16;4971023;28;20418;-90
2021/08/12 09:14:36;;;;;;;174.20;83.72;;;;;;;22.71;75.96;99032.88;4989179;28;20565;-93
2021/08/12 09:17:19;;;;;;;142.68;78.93;;;;;;;22.78;77.13;99048.78;4996115;28;20053;-88
2021/08/12 09:20:15;;;;;;;144.93;78.97;;;;;;;22.87;78.03;99049.16;4995580;28;20049;-90
2021/08/12 09:22:53;;;;;;;144.48;77.57;;;;;;;22.65;76.76;99026.13;4971846;28;20469;-91
2021/08/12 09:25:48;;;;;;;162.38;82.00;;;;;;;22.65;78.58;99042.84;5011940;28;20072;-88
2021/08/12 09:28:20;;;;;;;157.77;82.50;;;;;;;22.92;78.63;99065.50;4965033;28;20120;-94
2021/08/12 09:31:05;;;;;;;164.50;84.00;;;;;;;23.02;77.77;99063.91;4995178;28;20100;-91
2021/08/12 09:33:40;;;;;;;147.07;80.82;;;;;;;22.86;77.11;99042.81;4970194;28;20038;-92
2021/08/12 09:36:36;;;;;;;151.13;83.53;;;;;;;22.82;78.48;99018.94;4980032;28;20030;-92
2021/08/12 09:39:10;;;;;;;154.95;85.43;;;;;;;23.18;78.84;99053.88;4959458;28;20077;-91
2021/08/12 09:41:45;;;;;;;163.57;83.07;;;;;;;23.19;78.28;99049.88;4974574;28;20050;-89
2021/08/12 09:44:38;;;;;;;166.07;86.05;;;;;;;23.23;76.63;99058.25;4974254;28;20033;-90
2021/08/12 09:47:06;;;;;;;157.00;85.22;;;;;;;23.20;77.38;99040.31;4989264;28;20042;-88
2021/08/12 09:49:46;;;;;;;165.52;85.22;;;;;;;23.28;78.66;99043.88;4969946;28;20122;-89
2021/08/12 09:52:32;;;;;;;142.38;81.38;;;;;;;23.31;77.89;99036.69;4962365;28;20041;-90
2021/08/12 09:55:09;;;;;;;123.40;72.80;;;;;;;23.58;77.70;99068.44;4972722;28;20096;-77
2021/08/12 09:57:45;;;;;;;107.82;65.28;;;;;;;23.71;77.39;99056.81;5011630;28;20053;-84
2021/08/12 10:00:14;;;;;;;107.10;60.75;;;;;;;23.76;76.83;99065.56;4994809;28;20064;-77
2021/08/12 10:02:41;;;;;;;98.63;61.30;;;;;;;23.91;76.30;99061.50;5011971;28;20057;-79
2021/08/12 10:05:10;;;;;;;98.07;62.80;;;;;;;23.96;75.85;99057.47;5011793;28;20042;-78
2021/08/12 10:07:44;;;;;;;103.53;62.33;;;;;;;23.88;75.59;99039.97;5011728;28;20038;-79
2021/08/12 10:10:13;;;;;;;97.60;62.60;;;;;;;23.87;73.83;99071.06;5011717;28;20046;-79
2021/08/12 10:12:45;;;;;;;109.88;66.65;;;;;;;23.80;75.64;99065.53;4999827;28;20043;-78
2021/08/12 10:15:33;;;;;;;177.45;68.38;;;;;;;23.86;76.00;99066.72;4993545;28;20471;-77
2021/08/12 10:18:04;;;;;;;103.35;62.97;;;;;;;23.88;76.40;99067.91;5000654;28;20625;-79
2021/08/12 10:20:35;;;;;;;97.75;61.47;;;;;;;23.86;75.31;99055.53;4993184;28;20124;-80
2021/08/12 10:23:04;;;;;;;102.10;62.35;;;;;;;24.01;76.15;99075.81;4993249;28;20049;-83
2021/08/12 10:25:36;;;;;;;101.85;62.90;;;;;;;24.02;75.33;99072.59;4992452;28;20038;-78
2021/08/12 10:28:11;;;;;;;109.90;60.40;;;;;;;24.05;75.02;99076.56;5006895;28;20065;-81
2021/08/12 10:30:38;;;;;;;97.38;61.45;;;;;;;24.05;75.27;99082.16;5000605;28;20141;-78
2021/08/12 10:33:07;;;;;;;103.85;62.45;;;;;;;23.90;75.34;99061.88;4995900;28;20038;-80
2021/08/12 10:35:37;;;;;;;96.05;62.25;;;;;;;24.08;75.05;99068.16;5008119;28;20133;-82
2021/08/12 10:38:04;;;;;;;102.38;61.88;;;;;;;24.01;73.93;99082.16;5000874;28;20034;-76
2021/08/12 10:40:39;;;;;;;104.93;62.67;;;;;;;23.88;74.26;99075.47;5005247;28;20089;-86
2021/08/12 10:43:10;;;;;;;104.37;64.07;;;;;;;23.88;74.15;99079.06;5004378;28;20033;-83
2021/08/12 10:45:36;;;;;;;101.53;63.90;;;;;;;23.79;75.20;99077.94;5002925;28;20073;-78
2021/08/12 10:48:06;;;;;;;101.38;62.40;;;;;;;23.72;74.74;99073.19;5004869;28;20057;-77
2021/08/12 10:50:35;;;;;;;104.72;65.45;;;;;;;23.81;74.94;99086.69;4992405;28;20573;-83
2021/08/12 10:53:07;;;;;;;107.95;67.05;;;;;;;23.84;75.58;99080.25;4997471;28;20034;-74
2021/08/12 10:55:55;;;;;;;112.32;66.97;;;;;;;23.86;76.44;99077.88;5003206;28;20047;-73
2021/08/12 10:58:23;;;;;;;101.32;63.67;;;;;;;23.85;75.36;99088.25;4999257;28;20517;-80
2021/08/12 11:00:57;;;;;;;112.97;67.78;;;;;;;23.81;76.22;99073.53;5002190;28;20076;-79
2021/08/12 11:03:34;;;;;;;110.72;66.40;;;;;;;23.90;76.93;99089.81;4995960;28;20310;-75
2021/08/12 11:06:15;;;;;;;102.20;63.80;;;;;;;23.87;75.24;99090.63;4988956;28;20037;-78
2021/08/12 11:08:49;;;;;;;107.25;64.75;;;;;;;23.83;75.78;99089.84;5010675;28;20087;-75
2021/08/12 11:11:31;;;;;;;105.75;64.80;;;;;;;23.74;76.13;99095.91;5010012;28;20135;-76
2021/08/12 11:14:12;;;;;;;111.70;65.72;;;;;;;23.73;76.40;99096.28;5009920;28;20136;-76
2021/08/12 11:16:42;;;;;;;116.18;66.95;;;;;;;23.72;76.17;99097.50;5009462;28;20041;-75
2021/08/12 11:19:22;;;;;;;109.25;66.85;;;;;;;23.65;75.89;99095.50;5009767;28;20041;-76
2021/08/12 11:21:49;;;;;;;103.75;65.15;;;;;;;23.57;76.27;99093.94;4986430;28;20049;-76
2021/08/12 11:24:24;;;;;;;91.28;57.35;;;;;;;23.64;75.79;99107.88;4993773;28;20057;-75
2021/08/12 11:26:52;;;;;;;84.50;54.90;;;;;;;23.68;75.94;99103.91;5005707;28;20046;-75
2021/08/12 11:29:30;;;;;;;88.53;54.17;;;;;;;23.73;75.21;99107.47;4978922;28;20061;-76
2021/08/12 11:32:05;;;;;;;104.78;63.90;;;;;;;23.68;75.91;99111.47;4993673;28;20045;-84
2021/08/12 11:34:34;;;;;;;104.47;65.70;;;;;;;23.65;76.74;99107.47;5008233;28;20582;-84
2021/08/12 11:37:15;;;;;;;115.10;69.55;;;;;;;23.61;76.65;99101.13;5013629;28;20453;-79
2021/08/12 11:39:53;;;;;;;109.85;66.88;;;;;;;23.52;75.85;99099.97;5025775;28;20121;-76
2021/08/12 11:42:36;;;;;;;122.82;69.85;;;;;;;23.59;76.88;99094.34;5022053;28;20128;-75
2021/08/12 11:45:09;;;;;;;118.15;69.68;;;;;;;23.60;75.93;99098.72;5018561;28;20046;-79
2021/08/12 11:47:37;;;;;;;123.85;72.38;;;;;;;23.66;76.78;99099.88;5016326;28;20199;-77
2021/08/12 11:50:09;;;;;;;133.68;75.40;;;;;;;23.75;76.78;99103.06;5018157;28;20037;-78
2021/08/12 11:52:41;;;;;;;139.48;76.65;;;;;;;23.82;76.58;99105.03;5019099;28;20073;-75
2021/08/12 11:55:11;;;;;;;137.32;77.78;;;;;;;23.80;76.57;99090.66;5018671;28;20569;-81
2021/08/12 11:57:47;;;;;;;146.15;80.22;;;;;;;23.89;76.02;99091.81;5026114;28;20160;-79
2021/08/12 12:00:17;;;;;;;144.57;78.93;;;;;;;23.92;75.55;99098.56;5018050;28;20084;-79
2021/08/12 12:02:50;;;;;;;155.00;80.25;;;;;;;23.91;75.18;99099.78;5030845;28;20107;-86
2021/08/12 12:05:19;;;;;;;150.95;80.82;;;;;;;24.01;76.01;99096.13;5023523;28;20529;-83
2021/08/12 12:07:49;;;;;;;134.55;76.30;;;;;;;24.07;74.62;99105.66;5022210;28;20030;-91
2021/08/12 12:10:45;;;;;;;140.80;75.93;;;;;;;24.25;74.11;99104.75;5020016;28;20044;-77
2021/08/12 12:13:19;;;;;;;137.80;76.32;;;;;;;24.46;74.61;99106.59;5011853;28;20540;-81
2021/08/12 12:15:48;;;;;;;127.05;71.65;;;;;;;24.45;73.58;99096.63;5020899;28;20105;-88
2021/08/12 12:18:28;;;;;;;127.13;72.32;;;;;;;24.44;73.20;99084.66;5023293;28;20053;-86
2021/08/12 12:21:02;;;;;;;108.70;63.20;;;;;;;24.60;71.94;99096.09;5007684;28;20112;-91
2021/08/12 12:23:28;;;;;;;100.63;59.55;;;;;;;24.57;71.37;99090.53;5009884;28;20115;-90
2021/08/12 12:25:54;;;;;;;94.03;56.30;;;;;;;24.29;70.50;99069.97;4993673;28;20128;-89
2021/08/12 12:28:23;;;;;;;98.90;58.55;;;;;;;24.24;70.46;99076.03;4976898;28;20176;-89
2021/08/12 12:30:49;;;;;;;106.93;61.38;;;;;;;24.24;71.49;99080.78;4985233;28;20053;-90
2021/08/12 12:33:17;;;;;;;104.97;60.88;;;;;;;24.24;72.13;99097.53;4949139;28;20491;-91
2021/08/12 12:35:48;;;;;;;100.40;60.15;;;;;;;23.99;72.11;99064.22;4989081;28;20038;-91
2021/08/12 12:38:19;;;;;;;110.80;61.95;;;;;;;24.03;71.44;99090.91;4988121;28;20046;-91
2021/08/12 12:40:48;;;;;;;120.38;67.43;;;;;;;23.95;72.36;99097.75;4987253;28;20114;-92
2021/08/12 12:43:14;;;;;;;130.23;69.30;;;;;;;23.87;73.33;99099.81;4949379;28;20043;-90
2021/08/12 12:45:44;;;;;;;;;;;;;;;23.75;75.05;99089.13;4975170;28;20045;-89
2021/08/12 12:48:11;;;;;;;142.38;71.90;;;;;;;23.45;75.54;99065.31;4992241;28;19929;-91
2021/08/12 12:50:48;;;;;;;159.40;77.53;;;;;;;23.53;77.06;99090.38;5011065;28;20052;-88
2021/08/12 12:53:28;;;;;;;162.13;77.95;;;;;;;23.52;78.19;99072.06;4975976;28;20064;-89
2021/08/12 12:55:54;;;;;;;158.73;78.82;;;;;;;23.59;78.01;99060.88;4993364;28;20045;-88
2021/08/12 12:58:26;;;;;;;131.23;68.25;;;;;;;24.04;75.87;99100.09;4992302;28;20042;-78
2021/08/12 13:00:57;;;;;;;125.97;65.72;;;;;;;24.47;73.43;99099.78;4990137;28;20503;-78
2021/08/12 13:03:29;;;;;;;126.68;66.65;;;;;;;24.68;74.60;99093.22;4990792;28;20046;-83
2021/08/12 13:05:58;;;;;;;124.97;64.68;;;;;;;24.49;71.87;99092.59;4994916;28;20104;-89
2021/08/12 13:08:24;;;;;;;132.77;67.60;;;;;;;24.04;71.95;99036.69;4989902;28;20515;-89
2021/08/12 13:11:12;;;;;;;136.63;66.97;;;;;;;24.42;72.03;99097.44;4975898;28;20133;-88
2021/08/12 13:13:40;;;;;;;132.95;67.03;;;;;;;24.10;72.80;99035.00;4973492;28;20058;-90
2021/08/12 13:16:08;;;;;;;130.85;62.78;;;;;;;24.65;71.39;99085.69;4968963;28;20088;-91
2021/08/12 13:18:58;;;;;;;134.32;64.55;;;;;;;24.84;72.31;99079.50;5008481;28;20057;-90
2021/08/12 13:21:30;;;;;;;109.10;55.83;;;;;;;24.98;69.66;99098.91;4978459;28;20035;-93
2021/08/12 13:24:03;;;;;;;104.93;54.53;;;;;;;25.06;71.00;99094.81;4995628;28;20037;-94
2021/08/12 13:27:00;;;;;;;103.25;50.15;;;;;;;25.12;68.86;99089.59;4967293;28;20034;-92
2021/08/12 13:29:26;;;;;;;106.72;57.05;;;;;;;25.31;68.28;99100.16;4957342;28;20057;-93
2021/08/12 13:32:02;;;;;;;115.68;59.75;;;;;;;25.29;69.24;99110.19;4973167;28;20052;-92
2021/08/12 13:34:28;;;;;;;110.47;53.95;;;;;;;25.25;68.08;99089.84;4992196;28;20038;-93
2021/08/12 13:36:55;;;;;;;107.70;52.72;;;;;;;25.23;68.77;99062.31;4972645;28;20551;-92
2021/08/12 13:39:22;;;;;;;98.80;47.92;;;;;;;25.58;67.70;99105.03;4961897;28;20042;-93
2021/08/12 13:41:56;;;;;;;86.28;41.92;;;;;;;25.63;65.44;99098.97;4970592;28;20049;-92
2021/08/12 13:44:25;;;;;;;89.93;45.95;;;;;;;25.59;66.50;99087.00;4986996;28;20565;-92
2021/08/12 13:46:52;;;;;;;86.47;42.50;;;;;;;25.36;63.90;99061.75;5007595;28;20136;-93
2021/08/12 13:49:21;;;;;;;78.13;40.25;;;;;;;25.38;64.22;99074.09;4963368;28;20042;-85
2021/08/12 13:51:48;;;;;;;78.00;41.38;;;;;;;25.48;64.36;99098.34;4974324;28;20073;-86
2021/08/12 13:54:15;;;;;;;85.85;41.03;;;;;;;25.20;64.66;99074.34;5002348;28;20038;-85
2021/08/12 13:56:42;;;;;;;86.60;41.45;;;;;;;25.28;65.82;99105.81;5007468;28;20038;-92
2021/08/12 13:59:09;;;;;;;99.00;47.70;;;;;;;25.34;67.93;99106.16;4975620;28;20038;-89
2021/08/12 14:01:35;;;;;;;90.22;46.00;;;;;;;25.33;68.55;99099.75;4978137;28;20845;-92
2021/08/12 14:04:05;;;;;;;74.18;39.85;;;;;;;25.36;65.02;99112.09;4995121;28;20585;-77
2021/08/12 14:06:32;;;;;;;66.93;34.72;;;;;;;25.97;62.94;99115.72;5009254;28;20467;-87
2021/08/12 14:08:59;;;;;;;66.85;34.92;;;;;;;26.17;59.98;99104.63;5011621;28;20057;-78
2021/08/12 14:11:29;;;;;;;70.30;35.40;;;;;;;26.30;59.46;99110.44;5013361;28;20053;-78
2021/08/12 14:13:55;;;;;;;60.38;32.90;;;;;;;26.04;59.87;99091.63;5013626;28;20034;-79
2021/08/12 14:16:22;;;;;;;74.63;35.58;;;;;;;25.97;60.58;99104.53;5011444;28;20034;-79
2021/08/12 14:18:49;;;;;;;66.07;35.10;;;;;;;25.69;61.10;99110.47;5009608;28;20033;-75
2021/08/12 14:21:16;;;;;;;71.65;35.72;;;;;;;25.69;61.15;99116.09;5012639;28;20065;-77
2021/08/12 14:23:44;;;;;;;67.55;36.92;;;;;;;25.49;62.45;99094.34;5006699;28;20483;-78
2021/08/12 14:26:11;;;;;;;70.47;37.13;;;;;;;25.52;62.50;99115.09;5001616;28;20125;-78
2021/08/12 14:28:38;;;;;;;75.07;37.75;;;;;;;25.39;62.34;99116.88;5012163;28;20049;-85
2021/08/12 14:31:10;;;;;;;74.95;39.95;;;;;;;25.32;62.28;99103.75;5007764;28;20061;-91
2021/08/12 14:33:40;;;;;;;77.32;41.05;;;;;;;25.02;63.61;99108.06;4996260;28;20128;-93
2021/08/12 14:36:09;;;;;;;82.43;41.97;;;;;;;24.86;65.16;99127.38;4997973;28;20359;-92
2021/08/12 14:38:39;;;;;;;79.57;41.47;;;;;;;24.69;66.45;99122.75;4973365;28;20038;-93
2021/08/12 14:41:06;;;;;;;77.38;41.28;;;;;;;24.60;67.07;99124.03;4980219;28;20125;-92
2021/08/12 14:43:34;;;;;;;83.78;47.05;;;;;;;24.55;68.64;99124.47;4993361;28;20044;-92
2021/08/12 14:46:00;;;;;;;80.70;44.17;;;;;;;24.43;68.80;99119.38;4968625;28;20082;-83
2021/08/12 14:48:29;;;;;;;84.20;42.90;;;;;;;24.36;68.22;99120.19;5007617;28;20041;-82
2021/08/12 14:50:57;;;;;;;84.18;44.10;;;;;;;24.23;68.67;99110.72;5011163;28;20290;-79
2021/08/12 14:53:24;;;;;;;84.00;44.38;;;;;;;24.28;69.38;99120.69;5010953;28;20096;-80
2021/08/12 14:55:52;;;;;;;83.97;44.83;;;;;;;24.07;69.28;99107.66;5001171;28;20050;-89
2021/08/12 14:58:20;;;;;;;93.45;43.88;;;;;;;24.10;70.07;99124.38;5002649;28;20509;-77
2021/08/12 15:00:47;;;;;;;91.85;45.42;;;;;;;24.11;70.00;99133.56;5002338;28;20105;-79
2021/08/12 15:03:14;;;;;;;83.53;41.47;;;;;;;24.02;70.70;99117.25;5001861;28;20570;-79
2021/08/12 15:05:40;;;;;;;94.00;44.08;;;;;;;24.10;70.18;99135.53;4999130;28;20126;-79
2021/08/12 15:08:06;;;;;;;91.60;45.13;;;;;;;24.14;70.24;99144.72;5010214;28;20079;-79
2021/08/12 15:10:33;;;;;;;83.70;43.97;;;;;;;24.09;69.48;99142.34;4996928;28;20042;-82
2021/08/12 15:13:00;;;;;;;80.28;43.33;;;;;;;24.12;69.94;99147.13;5009497;28;20041;-85
2021/08/12 15:15:30;;;;;;;80.25;41.15;;;;;;;24.11;69.58;99142.75;5005405;28;20073;-84
2021/08/12 15:17:58;;;;;;;84.00;42.22;;;;;;;24.31;69.04;99147.81;5010059;28;20510;-79
2021/08/12 15:20:24;;;;;;;84.43;43.95;;;;;;;24.24;69.16;99156.19;4998905;28;20069;-84
2021/08/12 15:22:50;;;;;;;80.07;42.85;;;;;;;24.14;69.54;99147.50;5007596;28;20046;-81
2021/08/12 15:25:16;;;;;;;81.45;42.35;;;;;;;24.20;69.06;99152.66;4998189;28;20046;-81
2021/08/12 15:27:43;;;;;;;79.15;42.92;;;;;;;24.21;69.04;99157.06;5007422;28;20056;-81
2021/08/12 15:30:10;;;;;;;77.82;39.80;;;;;;;24.32;68.39;99157.75;4999624;28;20054;-80
2021/08/12 15:32:35;;;;;;;;;;;;;;;24.34;68.38;99167.34;4990804;28;20046;-82
2021/08/12 15:35:04;;;;;;;84.07;40.67;;;;;;;24.27;68.97;99152.59;4992913;28;19929;-80
2021/08/12 15:37:31;;;;;;;76.40;41.63;;;;;;;24.26;68.70;99167.78;4998398;28;20116;-79
2021/08/12 15:40:00;;;;;;;81.88;41.85;;;;;;;24.16;68.88;99163.84;5005068;28;20037;-81
2021/08/12 15:42:26;;;;;;;76.93;40.83;;;;;;;24.27;69.05;99161.78;5004072;28;20125;-81
2021/08/12 15:44:52;;;;;;;86.57;41.97;;;;;;;24.19;69.11;99153.84;5001236;28;20048;-78
2021/08/12 15:47:19;;;;;;;75.32;39.85;;;;;;;24.19;68.86;99156.66;5004862;28;20092;-84
2021/08/12 15:49:45;;;;;;;78.30;42.00;;;;;;;24.22;68.78;99158.63;5005029;28;20052;-82
2021/08/12 15:52:11;;;;;;;84.28;40.63;;;;;;;24.15;69.31;99156.69;5003522;28;20046;-79
2021/08/12 15:54:37;;;;;;;75.93;41.03;;;;;;;24.17;69.74;99150.66;5007341;28;20127;-78
2021/08/12 15:57:05;;;;;;;82.60;41.45;;;;;;;24.15;69.95;99149.09;4999114;28;20037;-79
2021/08/12 15:59:32;;;;;;;73.57;39.28;;;;;;;24.24;69.32;99151.44;5006311;28;20064;-82
2021/08/12 16:01:58;;;;;;;72.65;36.13;;;;;;;24.41;68.15;99155.34;5005662;28;20088;-80
2021/08/12 16:04:24;;;;;;;64.50;36.45;;;;;;;24.63;67.54;99161.53;4999992;28;20112;-85
2021/08/12 16:06:52;;;;;;;71.80;37.05;;;;;;;24.76;67.33;99154.22;4998836;28;20470;-83
2021/08/12 16:09:18;;;;;;;66.30;35.63;;;;;;;24.83;66.84;99159.78;4994342;28;20116;-78
2021/08/12 16:11:46;;;;;;;67.50;35.35;;;;;;;24.76;67.01;99161.84;5000281;28;20065;-78
2021/08/12 16:14:12;;;;;;;65.28;34.50;;;;;;;24.79;67.29;99158.22;4992525;28;20048;-80
2021/08/12 16:16:38;;;;;;;65.93;35.75;;;;;;;24.70;67.38;99163.47;4994815;28;20121;-81
2021/08/12 16:19:04;;;;;;;64.45;35.05;;;;;;;24.71;67.11;99162.28;5011394;28;20527;-81
2021/08/12 16:21:31;;;;;;;68.22;33.92;;;;;;;24.56;67.68;99158.81;4996815;28;20100;-83
2021/08/12 16:23:57;;;;;;;63.03;33.17;;;;;;;24.56;67.15;99165.19;5013580;28;20041;-77
2021/08/12 16:26:23;;;;;;;58.25;31.40;;;;;;;24.61;67.17;99164.75;5014210;28;20515;-85
2021/08/12 16:28:49;;;;;;;59.35;32.25;;;;;;;24.45;67.12;99161.69;5014466;28;20144;-76
2021/08/12 16:31:20;;;;;;;61.65;33.33;;;;;;;24.36;68.02;99166.91;5014152;28;20057;-76
2021/08/12 16:33:48;;;;;;;57.38;32.88;;;;;;;24.16;68.49;99163.84;5014346;28;20034;-86
2021/08/12 16:36:14;;;;;;;58.42;32.75;;;;;;;23.98;69.30;99169.53;5015283;28;20038;-79
2021/08/12 16:38:40;;;;;;;63.45;33.50;;;;;;;23.78;69.65;99155.28;5014592;28;20062;-77
2021/08/12 16:41:06;;;;;;;59.67;33.00;;;;;;;23.64;69.76;99144.13;5013767;28;20129;-85
2021/08/12 16:43:34;;;;;;;57.05;30.38;;;;;;;23.59;70.11;99159.31;5006076;28;20414;-88
2021/08/12 16:46:00;;;;;;;56.35;31.38;;;;;;;23.46;70.78;99155.38;5011101;28;20109;-83
2021/08/12 16:48:30;;;;;;;55.70;30.70;;;;;;;23.40;70.73;99166.16;5005310;28;20038;-84
2021/08/12 16:50:57;;;;;;;64.53;32.60;;;;;;;23.23;71.35;99152.28;5002197;28;20073;-80
2021/08/12 16:53:23;;;;;;;54.63;30.55;;;;;;;23.19;71.48;99164.22;5002390;28;20451;-78
2021/08/12 16:55:50;;;;;;;53.72;29.35;;;;;;;23.09;71.22;99175.41;4995294;28;20045;-84
2021/08/12 16:58:16;;;;;;;50.90;29.13;;;;;;;22.83;71.31;99143.94;5002249;28;20044;-82
2021/08/12 17:00:42;;;;;;;52.45;29.33;;;;;;;23.03;71.44;99179.78;5003420;28;20521;-83
2021/08/12 17:03:08;;;;;;;53.67;31.02;;;;;;;23.00;72.01;99173.00;4998626;28;20044;-85
2021/08/12 17:05:34;;;;;;;55.90;29.20;;;;;;;22.97;71.63;99188.53;4986133;28;20046;-86
2021/08/12 17:08:01;;;;;;;49.88;30.08;;;;;;;22.84;71.92;99175.38;4987662;28;20499;-83
2021/08/12 17:10:29;;;;;;;51.80;29.60;;;;;;;22.71;72.19;99167.44;4993841;28;20049;-84
2021/08/12 17:12:56;;;;;;;63.40;31.05;;;;;;;22.75;72.51;99189.75;4993689;28;20060;-87
2021/08/12 17:15:23;;;;;;;59.83;30.95;;;;;;;22.67;72.36;99186.13;4995829;28;20042;-89
2021/08/12 17:17:50;;;;;;;72.40;32.15;;;;;;;22.66;72.89;99209.63;4991991;28;20038;-89
2021/08/12 17:20:16;;;;;;;50.65;29.50;;;;;;;22.31;72.88;99162.22;4978936;28;20150;-88
2021/08/12 17:22:43;;;;;;;56.00;30.23;;;;;;;22.40;73.30;99180.16;4985846;28;20537;-86
2021/08/12 17:25:11;;;;;;;61.20;31.13;;;;;;;22.25;73.71;99165.44;5002961;28;20124;-87
2021/08/12 17:27:37;;;;;;;64.55;31.92;;;;;;;22.17;74.08;99174.94;4996091;28;20088;-86
2021/08/12 17:30:05;;;;;;;59.00;30.58;;;;;;;22.25;73.91;99204.41;4993565;28;20054;-77
2021/08/12 17:32:32;;;;;;;54.40;29.88;;;;;;;22.09;74.10;99178.88;4997450;28;20045;-87
2021/08/12 17:34:59;;;;;;;53.35;31.25;;;;;;;22.10;74.16;99182.47;4980686;28;20041;-87
2021/08/12 17:37:26;;;;;;;56.38;29.80;;;;;;;22.13;73.78;99204.75;4994588;28;20046;-87
2021/08/12 17:39:52;;;;;;;59.25;29.48;;;;;;;21.69;74.17;99140.97;4991770;28;20042;-85
2021/08/12 17:42:18;;;;;;;55.80;30.50;;;;;;;21.83;73.90;99177.22;4987059;28;20038;-85
2021/08/12 17:44:44;;;;;;;60.72;30.75;;;;;;;21.90;73.40;99196.72;4987129;28;20042;-85
2021/08/12 17:47:12;;;;;;;57.33;30.70;;;;;;;21.88;73.24;99207.44;4997327;28;20095;-84
2021/08/12 17:49:40;;;;;;;60.92;32.10;;;;;;;21.61;74.08;99165.19;4987661;28;20492;-85
2021/08/12 17:52:07;;;;;;;60.63;30.73;;;;;;;21.65;73.72;99185.47;4974555;28;20532;-84
2021/08/12 17:54:35;;;;;;;52.75;30.65;;;;;;;21.81;74.07;99224.09;4976711;28;20504;-87
2021/08/12 17:57:02;;;;;;;59.17;33.13;;;;;;;21.74;74.64;99230.44;4988778;28;20145;-83
2021/08/12 17:59:28;;;;;;;66.85;32.78;;;;;;;21.65;74.35;99226.41;5001334;28;20045;-79
2021/08/12 18:01:59;;;;;;;63.08;30.45;;;;;;;21.50;73.31;99225.53;4999259;28;20050;-80
2021/08/12 18:04:26;;;;;;;62.15;26.02;;;;;;;21.50;71.51;99233.88;5002025;28;20156;-82
2021/08/12 18:06:54;;;;;;;55.17;23.92;;;;;;;21.43;69.63;99231.88;4974571;28;20646;-83
2021/08/12 18:09:22;;;;;;;62.60;22.25;;;;;;;21.39;69.62;99233.81;4974434;28;20146;-82
2021/08/12 18:11:53;;;;;;;55.88;20.55;;;;;;;21.38;68.09;99237.78;4968992;28;20150;-85
2021/08/12 18:14:20;;;;;;;49.47;19.50;;;;;;;21.27;67.66;99229.34;4970515;28;20038;-78
2021/08/12 18:16:46;;;;;;;45.47;17.60;;;;;;;21.32;68.37;99233.72;4978060;28;20050;-89
2021/08/12 18:19:12;;;;;;;62.00;17.43;;;;;;;21.22;67.40;99232.47;4978469;28;20050;-89
2021/08/12 18:21:38;;;;;;;49.50;16.30;;;;;;;21.25;67.06;99231.69;4974489;28;20295;-86
2021/08/12 18:24:04;;;;;;;50.95;17.95;;;;;;;21.14;67.78;99233.63;4963708;28;20044;-89
2021/08/12 18:26:30;;;;;;;37.67;15.90;;;;;;;21.22;65.66;99226.91;4961757;28;20607;-86
2021/08/12 18:28:58;;;;;;;46.17;16.17;;;;;;;21.19;65.64;99230.50;4970118;28;20142;-83
2021/08/12 18:31:26;;;;;;;35.05;14.52;;;;;;;21.21;64.59;99224.53;4961859;28;20185;-80
2021/08/12 18:33:54;;;;;;;38.28;13.82;;;;;;;21.17;65.08;99227.28;4973885;28;20496;-78
2021/08/12 18:36:20;;;;;;;29.27;13.05;;;;;;;21.21;65.23;99221.75;4973554;28;20030;-87
2021/08/12 18:38:47;;;;;;;;;;;;;;;21.27;65.03;99236.88;4958684;28;20054;-83
2021/08/12 18:41:13;;;;;;;;;;;;;;;21.25;65.75;99231.69;4971490;28;19918;-89
2021/08/12 18:43:40;;;;;;;30.50;14.10;;;;;;;21.18;65.15;99223.31;4971408;28;19922;-89
2021/08/12 18:46:07;;;;;;;157.25;20.35;;;;;;;21.17;65.98;99232.06;4990962;28;20041;-83
2021/08/12 18:48:35;;;;;;;32.97;14.85;;;;;;;21.12;66.88;99233.19;4983009;28;20034;-80
2021/08/12 18:51:02;;;;;;;30.08;14.38;;;;;;;21.13;66.24;99240.38;4984987;28;20038;-82
2021/08/12 18:53:29;;;;;;;38.28;15.75;;;;;;;21.06;67.25;99237.53;4985001;28;20038;-84
2021/08/12 18:55:57;;;;;;;32.75;14.90;;;;;;;20.94;66.98;99226.72;4991203;28;20103;-91